Time;durP1;ratioP1;P1;durP2;ratioP2;P2;SDS_P1;SDS_P2;PMS_P1;PMS_P2;Temp;Humidity;BMP_temperature;BMP_pressure;BME280_temperature;BME280_humidity;BME280_pressure;Samples;Min_cycle;Max_cycle;Signal;HPM_P1;HPM_P2
2023/10/22 00:01:14;;;;;;;4.85;1.38;;;;;12.20;99220.00;;;;10421782;28;20226;-70
2023/10/22 00:06:17;;;;;;;3.33;1.63;;;;;12.20;99230.00;;;;10374119;28;20213;-70
2023/10/22 00:11:19;;;;;;;3.07;1.40;;;;;12.30;99227.00;;;;10365724;28;20233;-70
2023/10/22 00:16:21;;;;;;;4.60;1.40;;;;;12.30;99231.00;;;;10395370;28;20849;-71
2023/10/22 00:21:22;;;;;;;3.07;1.40;;;;;12.30;99259.00;;;;10414664;28;20958;-70
2023/10/22 00:26:24;;;;;;;6.97;1.63;;;;;12.30;99242.00;;;;10415276;28;20214;-70
2023/10/22 00:31:26;;;;;;;5.50;1.57;;;;;12.40;99264.00;;;;10419437;28;20828;-72
2023/10/22 00:36:29;;;;;;;4.47;1.58;;;;;12.40;99278.00;;;;10425601;28;20191;-72
2023/10/22 00:41:31;;;;;;;6.20;1.50;;;;;12.40;99295.00;;;;10413271;28;20198;-72
2023/10/22 00:46:33;;;;;;;4.00;1.50;;;;;12.50;99288.00;;;;10403838;28;20195;-72
2023/10/22 00:51:36;;;;;;;3.90;1.63;;;;;12.50;99298.00;;;;10414717;28;20909;-72
2023/10/22 00:56:38;;;;;;;4.45;1.50;;;;;12.50;99293.00;;;;10415645;28;20321;-72
2023/10/22 01:01:44;;;;;;;7.65;1.70;;;;;12.50;99307.00;;;;10433890;28;20678;-73
2023/10/22 01:06:46;;;;;;;2.63;0.93;;;;;12.60;99314.00;;;;10414938;28;20252;-73
2023/10/22 01:12:03;;;;;;;6.40;1.30;;;;;12.60;99333.00;;;;10421841;28;20194;-72
2023/10/22 01:17:05;;;;;;;2.65;1.10;;;;;12.50;99352.00;;;;10392306;28;20603;-73
2023/10/22 01:22:06;;;;;;;3.15;1.60;;;;;12.50;99356.00;;;;10408835;28;20228;-73
2023/10/22 01:27:08;;;;;;;4.13;1.03;;;;;12.50;99363.00;;;;10397499;28;20899;-72
2023/10/22 01:32:10;;;;;;;2.50;1.20;;;;;12.50;99369.00;;;;10420311;28;20218;-72
2023/10/22 01:37:12;;;;;;;3.22;1.10;;;;;12.50;99381.00;;;;10410248;28;20283;-72
2023/10/22 01:42:14;;;;;;;1.73;0.90;;;;;12.50;99388.00;;;;10413362;28;20673;-75
2023/10/22 01:47:16;;;;;;;4.10;1.03;;;;;12.50;99393.00;;;;10422880;28;20209;-75
2023/10/22 01:52:18;;;;;;;1.58;0.95;;;;;12.50;99413.00;;;;10420023;28;20253;-75
2023/10/22 01:57:19;;;;;;;3.13;0.93;;;;;12.50;99429.00;;;;10431083;28;20945;-74
2023/10/22 02:02:22;;;;;;;6.03;0.98;;;;;12.40;99428.00;;;;10396435;28;20219;-77
2023/10/22 02:07:24;;;;;;;3.27;0.93;;;;;12.40;99448.00;;;;10396802;28;20218;-76
2023/10/22 02:12:28;;;;;;;3.17;1.10;;;;;12.30;99460.00;;;;10417414;28;20210;-74
2023/10/22 02:17:30;;;;;;;2.05;1.05;;;;;12.30;99462.00;;;;10390436;28;20277;-74
2023/10/22 02:22:33;;;;;;;2.97;0.75;;;;;12.20;99471.00;;;;10408355;28;20415;-76
2023/10/22 02:27:35;;;;;;;3.63;1.10;;;;;12.20;99476.00;;;;10421242;28;20235;-75
2023/10/22 02:32:37;;;;;;;4.00;1.10;;;;;12.10;99483.00;;;;10418049;28;20237;-75
2023/10/22 02:37:39;;;;;;;5.07;1.20;;;;;12.00;99488.00;;;;10394743;28;20248;-75
2023/10/22 02:42:41;;;;;;;2.53;1.03;;;;;11.90;99495.00;;;;10408412;28;20305;-76
2023/10/22 02:47:44;;;;;;;4.43;1.27;;;;;11.90;99508.00;;;;10410515;28;20881;-75
2023/10/22 02:52:46;;;;;;;1.37;0.90;;;;;11.80;99518.00;;;;10396238;28;20349;-70
2023/10/22 02:57:47;;;;;;;2.13;1.00;;;;;11.80;99528.00;;;;10403912;28;20206;-70
2023/10/22 03:02:49;;;;;;;3.63;0.90;;;;;11.70;99538.00;;;;10403969;28;20219;-70
2023/10/22 03:07:51;;;;;;;1.70;1.13;;;;;11.70;99548.00;;;;10422980;28;20635;-70
2023/10/22 03:12:53;;;;;;;1.77;0.70;;;;;11.70;99556.00;;;;10426208;28;20206;-70
2023/10/22 03:17:56;;;;;;;2.20;1.03;;;;;11.70;99565.00;;;;10427237;28;20202;-70
2023/10/22 03:23:01;;;;;;;4.77;1.00;;;;;11.70;99577.00;;;;10427655;28;20225;-71
2023/10/22 03:28:03;;;;;;;4.77;1.20;;;;;11.70;99587.00;;;;10434290;28;20267;-70
2023/10/22 03:33:05;;;;;;;2.00;1.10;;;;;11.60;99594.00;;;;10411915;28;20305;-70
2023/10/22 03:38:07;;;;;;;4.73;1.80;;;;;11.60;99606.00;;;;10422221;28;20210;-70
2023/10/22 03:43:10;;;;;;;2.80;0.97;;;;;11.60;99617.00;;;;10456246;28;20229;-70
2023/10/22 03:48:12;;;;;;;3.87;1.40;;;;;11.60;99624.00;;;;10416470;28;20881;-70
2023/10/22 03:53:14;;;;;;;5.90;1.20;;;;;11.60;99634.00;;;;10425198;28;20203;-70
2023/10/22 03:58:16;;;;;;;3.80;1.23;;;;;11.60;99648.00;;;;10422151;28;20234;-69
2023/10/22 04:03:18;;;;;;;3.63;1.20;;;;;11.60;99655.00;;;;10432493;28;20264;-73
2023/10/22 04:08:20;;;;;;;4.63;1.07;;;;;11.60;99664.00;;;;10410369;28;20206;-72
2023/10/22 04:13:22;;;;;;;2.37;1.30;;;;;11.60;99669.00;;;;10427890;28;20913;-73
2023/10/22 04:18:24;;;;;;;4.63;1.50;;;;;11.60;99669.00;;;;10425777;28;20207;-73
2023/10/22 04:23:26;;;;;;;3.90;1.80;;;;;11.60;99674.00;;;;10403873;28;20228;-73
2023/10/22 04:28:28;;;;;;;3.70;1.70;;;;;11.70;99692.00;;;;10422586;28;20210;-73
2023/10/22 04:33:31;;;;;;;6.10;1.90;;;;;11.70;99694.00;;;;10431742;28;20847;-73
2023/10/22 04:38:33;;;;;;;3.90;1.40;;;;;11.60;99690.00;;;;10430235;28;20198;-73
2023/10/22 04:43:35;;;;;;;4.57;1.97;;;;;11.60;99691.00;;;;10432735;28;20900;-73
2023/10/22 04:48:37;;;;;;;2.43;1.33;;;;;11.60;99700.00;;;;10428530;28;20213;-73
2023/10/22 04:53:39;;;;;;;5.63;1.57;;;;;11.50;99700.00;;;;10408481;28;20726;-73
2023/10/22 04:58:41;;;;;;;4.60;1.70;;;;;11.40;99712.00;;;;10391187;28;20221;-73
2023/10/22 05:03:42;;;;;;;4.07;1.43;;;;;11.30;99718.00;;;;10407718;28;20308;-72
2023/10/22 05:08:44;;;;;;;5.90;1.40;;;;;11.30;99723.00;;;;10415699;28;20214;-73
2023/10/22 05:13:46;;;;;;;1.90;1.13;;;;;11.20;99724.00;;;;10431459;28;20284;-73
2023/10/22 05:18:48;;;;;;;4.47;1.37;;;;;11.20;99728.00;;;;10424713;28;20210;-72
2023/10/22 05:23:50;;;;;;;3.37;1.33;;;;;11.10;99726.00;;;;10414445;28;20230;-73
2023/10/22 05:28:55;;;;;;;3.90;1.30;;;;;10.90;99743.00;;;;10420839;28;20210;-73
2023/10/22 05:33:56;;;;;;;5.13;1.57;;;;;10.80;99746.00;;;;10408870;28;21051;-73
2023/10/22 05:38:59;;;;;;;4.77;1.40;;;;;10.80;99754.00;;;;10414265;28;20222;-73
2023/10/22 05:44:02;;;;;;;4.67;1.77;;;;;10.90;99758.00;;;;10421249;28;20997;-72
2023/10/22 05:49:04;;;;;;;7.43;1.60;;;;;10.90;99768.00;;;;10414305;28;20305;-72
2023/10/22 05:54:06;;;;;;;7.43;1.67;;;;;11.00;99774.00;;;;10417362;28;20261;-73
2023/10/22 05:59:12;;;;;;;3.90;1.60;;;;;11.00;99780.00;;;;10424526;28;20217;-73
2023/10/22 06:04:14;;;;;;;5.13;1.57;;;;;11.00;99784.00;;;;10429013;28;20288;-73
2023/10/22 06:09:16;;;;;;;4.83;1.80;;;;;11.10;99788.00;;;;10420114;28;20206;-73
2023/10/22 06:14:18;;;;;;;3.87;1.70;;;;;11.20;99803.00;;;;10417491;28;20202;-72
2023/10/22 06:19:20;;;;;;;6.70;1.97;;;;;11.30;99801.00;;;;10429028;28;20838;-72
2023/10/22 06:24:21;;;;;;;5.40;2.30;;;;;11.40;99822.00;;;;10407401;28;20302;-75
2023/10/22 06:29:23;;;;;;;6.57;1.67;;;;;11.50;99839.00;;;;10426670;28;20769;-75
2023/10/22 06:34:25;;;;;;;2.93;1.90;;;;;11.50;99844.00;;;;10418271;28;20294;-75
2023/10/22 06:39:27;;;;;;;7.47;2.13;;;;;11.50;99865.00;;;;10426880;28;20735;-75
2023/10/22 06:44:29;;;;;;;5.13;2.33;;;;;11.60;99869.00;;;;10437637;28;20235;-75
2023/10/22 06:49:31;;;;;;;4.57;2.10;;;;;11.70;99888.00;;;;10431698;28;20296;-74
2023/10/22 06:54:33;;;;;;;7.17;2.73;;;;;11.80;99888.00;;;;10415757;28;20214;-74
2023/10/22 06:59:35;;;;;;;4.27;2.57;;;;;12.00;99903.00;;;;10407644;28;20215;-74
2023/10/22 07:04:36;;;;;;;4.23;2.77;;;;;12.10;99902.00;;;;10431899;28;20851;-74
2023/10/22 07:09:39;;;;;;;5.03;3.00;;;;;12.20;99910.00;;;;10419877;28;20214;-74
2023/10/22 07:14:41;;;;;;;7.03;2.70;;;;;12.30;99905.00;;;;10430011;28;20847;-75
2023/10/22 07:19:43;;;;;;;3.73;2.80;;;;;12.40;99909.00;;;;10429083;28;20206;-74
2023/10/22 07:24:45;;;;;;;12.27;3.50;;;;;12.60;99924.00;;;;10386192;28;20242;-75
2023/10/22 07:29:47;;;;;;;4.72;3.13;;;;;12.90;99929.00;;;;10427812;28;20222;-75
2023/10/22 07:34:49;;;;;;;3.90;2.60;;;;;13.20;99952.00;;;;10420929;28;20209;-73
2023/10/22 07:39:51;;;;;;;6.03;3.63;;;;;13.40;99950.00;;;;10395924;28;20296;-73
2023/10/22 07:44:53;;;;;;;4.82;2.45;;;;;13.50;99956.00;;;;10408229;28;20229;-72
2023/10/22 07:49:55;;;;;;;3.50;2.90;;;;;13.50;99958.00;;;;10437913;28;20286;-73
2023/10/22 07:54:57;;;;;;;5.40;3.10;;;;;13.40;99964.00;;;;10373741;28;20802;-73
2023/10/22 07:59:59;;;;;;;5.53;2.30;;;;;13.30;99973.00;;;;10317188;28;20202;-73
2023/10/22 08:05:01;;;;;;;4.15;3.10;;;;;13.20;99982.00;;;;10333483;28;20215;-73
2023/10/22 08:10:03;;;;;;;3.95;2.67;;;;;13.20;99996.00;;;;10333942;28;20269;-73
2023/10/22 08:15:05;;;;;;;6.63;2.65;;;;;13.20;100003.00;;;;10332844;28;20301;-73
2023/10/22 08:20:07;;;;;;;5.28;2.63;;;;;13.40;100018.00;;;;10335761;28;20229;-73
2023/10/22 08:25:09;;;;;;;2.88;2.40;;;;;13.40;100021.00;;;;10311795;28;20218;-73
2023/10/22 08:30:12;;;;;;;5.50;2.78;;;;;13.50;100019.00;;;;10315880;28;20242;-73
2023/10/22 08:35:18;;;;;;;3.17;2.20;;;;;13.60;100027.00;;;;10315462;28;20303;-73
2023/10/22 08:40:21;;;;;;;4.78;2.85;;;;;13.70;100037.00;;;;10301726;28;20298;-73
2023/10/22 08:45:23;;;;;;;4.47;2.40;;;;;13.70;100048.00;;;;10321284;28;20304;-72
2023/10/22 08:50:25;;;;;;;6.13;2.53;;;;;13.80;100045.00;;;;10318847;28;20202;-72
2023/10/22 08:55:29;;;;;;;2.83;2.00;;;;;13.90;100048.00;;;;10303632;28;20252;-72
2023/10/22 09:00:33;;;;;;;3.17;2.30;;;;;14.00;100048.00;;;;10300534;28;20561;-72
2023/10/22 09:05:38;;;;;;;4.90;2.13;;;;;14.10;100056.00;;;;10300875;28;20230;-72
2023/10/22 09:10:44;;;;;;;4.43;2.28;;;;;14.10;100074.00;;;;10389730;28;20199;-72
2023/10/22 09:15:47;;;;;;;4.55;2.10;;;;;14.10;100074.00;;;;10422910;28;20679;-71
2023/10/22 09:20:49;;;;;;;3.55;1.83;;;;;14.30;100086.00;;;;10426687;28;20669;-72
2023/10/22 09:25:55;;;;;;;3.70;1.63;;;;;14.20;100085.00;;;;10419648;28;20211;-71
2023/10/22 09:31:03;;;;;;;2.78;1.83;;;;;14.10;100099.00;;;;10417437;28;20248;-71
2023/10/22 09:36:08;;;;;;;6.03;2.17;;;;;14.10;100105.00;;;;10420578;28;20616;-71
2023/10/22 09:41:31;;;;;;;4.60;1.70;;;;;14.20;100101.00;;;;10415572;28;20232;-72
2023/10/22 09:46:34;;;;;;;1.88;1.63;;;;;14.20;100103.00;;;;10400153;28;20257;-72
2023/10/22 09:51:38;;;;;;;2.35;2.10;;;;;14.60;100111.00;;;;10424129;28;20198;-74
2023/10/22 09:57:06;;;;;;;3.40;2.38;;;;;14.80;100131.00;;;;10424152;28;20838;-73
2023/10/22 10:02:13;;;;;;;2.85;2.42;;;;;15.00;100126.00;;;;10424888;28;20203;-73
2023/10/22 10:07:17;;;;;;;5.60;2.95;;;;;15.20;100124.00;;;;10428960;28;21082;-73
2023/10/22 10:12:20;;;;;;;4.90;3.15;;;;;15.60;100113.00;;;;10425476;28;20247;-73
2023/10/22 10:17:22;;;;;;;4.03;3.20;;;;;15.50;100121.00;;;;10430558;28;20195;-73
2023/10/22 10:22:38;;;;;;;2.78;2.58;;;;;15.40;100133.00;;;;10414236;28;20265;-74
2023/10/22 10:27:50;;;;;;;3.17;2.60;;;;;15.40;100130.00;;;;10400082;28;20630;-74
2023/10/22 10:32:52;;;;;;;5.22;3.15;;;;;15.40;100142.00;;;;10426280;28;20190;-73
2023/10/22 10:38:13;;;;;;;3.58;2.55;;;;;15.80;100154.00;;;;10441181;28;20190;-73
2023/10/22 10:43:16;;;;;;;3.30;2.30;;;;;16.20;100155.00;;;;10432065;28;20210;-74
2023/10/22 10:48:45;;;;;;;5.07;2.17;;;;;16.40;100165.00;;;;10410747;28;20231;-74
2023/10/22 10:54:02;;;;;;;2.33;1.80;;;;;16.40;100162.00;;;;10422784;28;20187;-74
2023/10/22 10:59:04;;;;;;;2.40;1.40;;;;;16.20;100166.00;;;;10407036;28;20667;-74
2023/10/22 11:04:07;;;;;;;4.47;1.80;;;;;16.30;100167.00;;;;10429417;28;20213;-71
2023/10/22 11:09:09;;;;;;;5.50;2.00;;;;;16.30;100162.00;;;;10407970;28;20214;-72
2023/10/22 11:14:12;;;;;;;2.95;1.40;;;;;16.00;100168.00;;;;10435555;28;20224;-72
2023/10/22 11:19:23;;;;;;;4.40;1.63;;;;;15.60;100165.00;;;;10424385;28;20195;-72
2023/10/22 11:24:33;;;;;;;1.80;1.70;;;;;15.90;100176.00;;;;10422503;28;20223;-71
2023/10/22 11:29:43;;;;;;;4.30;1.90;;;;;16.30;100180.00;;;;10421107;28;20191;-72
2023/10/22 11:34:53;;;;;;;1.95;1.75;;;;;17.10;100177.00;;;;10405528;28;20198;-72
2023/10/22 11:39:55;;;;;;;2.38;1.27;;;;;17.80;100178.00;;;;10408227;28;20226;-72
2023/10/22 11:44:57;;;;;;;1.38;1.08;;;;;18.60;100181.00;;;;10402687;28;20206;-71
2023/10/22 11:49:59;;;;;;;1.25;1.15;;;;;19.10;100184.00;;;;10413343;28;20218;-72
2023/10/22 11:55:01;;;;;;;3.10;1.00;;;;;18.80;100196.00;;;;10428099;28;20187;-72
2023/10/22 12:00:10;;;;;;;1.65;1.20;;;;;18.30;100207.00;;;;10430967;28;20259;-73
2023/10/22 12:05:13;;;;;;;1.45;1.15;;;;;17.30;100206.00;;;;10421357;28;20209;-73
2023/10/22 12:10:17;;;;;;;1.67;1.50;;;;;16.60;100210.00;;;;10423903;28;20874;-72
2023/10/22 12:15:18;;;;;;;3.40;1.60;;;;;16.10;100217.00;;;;10423533;28;20218;-73
2023/10/22 12:20:21;;;;;;;1.83;1.65;;;;;15.80;100205.00;;;;10401611;28;20580;-72
2023/10/22 12:25:23;;;;;;;2.10;1.70;;;;;15.60;100220.00;;;;10420614;28;20926;-72
2023/10/22 12:30:26;;;;;;;3.67;2.13;;;;;15.90;100234.00;;;;10412370;28;20191;-72
2023/10/22 12:35:28;;;;;;;2.85;1.83;;;;;16.30;100235.00;;;;10416210;28;20221;-72
2023/10/22 12:40:30;;;;;;;2.58;1.45;;;;;17.40;100236.00;;;;10398022;28;20575;-72
2023/10/22 12:45:37;;;;;;;1.42;1.33;;;;;17.50;100248.00;;;;10418975;28;20300;-72
2023/10/22 12:50:48;;;;;;;3.30;1.67;;;;;17.20;100257.00;;;;10399825;28;20198;-72
2023/10/22 12:55:53;;;;;;;2.50;1.42;;;;;16.50;100252.00;;;;10400217;28;20293;-73
2023/10/22 13:00:55;;;;;;;2.47;1.10;;;;;16.00;100256.00;;;;10413653;28;20303;-72
2023/10/22 13:06:05;;;;;;;2.42;1.30;;;;;15.50;100253.00;;;;10417905;28;20214;-73
2023/10/22 13:11:07;;;;;;;1.67;1.48;;;;;15.60;100257.00;;;;10401106;28;20224;-72
2023/10/22 13:16:09;;;;;;;3.40;1.80;;;;;16.50;100254.00;;;;10417304;28;20277;-72
2023/10/22 13:21:11;;;;;;;4.00;1.50;;;;;16.60;100268.00;;;;10417518;28;20205;-72
2023/10/22 13:26:13;;;;;;;1.30;1.13;;;;;16.20;100266.00;;;;10415272;28;20994;-72
2023/10/22 13:31:14;;;;;;;1.40;0.98;;;;;15.90;100270.00;;;;10388239;28;20202;-72
2023/10/22 13:36:16;;;;;;;1.33;1.23;;;;;16.00;100276.00;;;;10400392;28;20217;-72
2023/10/22 13:41:18;;;;;;;3.35;1.42;;;;;16.10;100274.00;;;;10412276;28;20194;-73
2023/10/22 13:46:20;;;;;;;3.75;1.50;;;;;16.00;100276.00;;;;10407026;28;20208;-71
2023/10/22 13:51:22;;;;;;;3.03;1.58;;;;;15.70;100273.00;;;;10412483;28;20199;-72
2023/10/22 13:56:24;;;;;;;1.67;1.23;;;;;15.30;100280.00;;;;10402403;28;20245;-72
2023/10/22 14:01:26;;;;;;;3.70;1.35;;;;;15.20;100287.00;;;;10414268;28;20222;-72
2023/10/22 14:06:27;;;;;;;6.03;1.50;;;;;15.20;100288.00;;;;10419629;28;20222;-72
2023/10/22 14:11:29;;;;;;;3.75;1.50;;;;;15.50;100290.00;;;;10375501;28;20412;-72
2023/10/22 14:16:33;;;;;;;3.33;1.40;;;;;15.90;100289.00;;;;10418570;28;20194;-72
2023/10/22 14:21:35;;;;;;;2.85;1.40;;;;;16.60;100300.00;;;;10393011;28;20198;-72
2023/10/22 14:26:38;;;;;;;3.80;1.20;;;;;16.70;100303.00;;;;10410962;28;20206;-71
2023/10/22 14:31:40;;;;;;;3.50;1.10;;;;;16.70;100307.00;;;;10408539;28;20195;-73
2023/10/22 14:36:41;;;;;;;2.75;1.10;;;;;16.50;100306.00;;;;10404843;28;20687;-73
2023/10/22 14:41:43;;;;;;;4.20;1.10;;;;;16.50;100295.00;;;;10387876;28;20284;-73
2023/10/22 14:46:45;;;;;;;3.13;1.45;;;;;17.40;100306.00;;;;10419161;28;20758;-73
2023/10/22 14:51:47;;;;;;;1.95;1.25;;;;;16.50;100310.00;;;;10416139;28;20226;-74
2023/10/22 14:56:49;;;;;;;1.65;1.17;;;;;16.10;100325.00;;;;10396668;28;20214;-73
2023/10/22 15:01:51;;;;;;;1.48;0.95;;;;;15.70;100325.00;;;;10404904;28;20373;-74
2023/10/22 15:06:52;;;;;;;2.65;0.80;;;;;15.40;100330.00;;;;10413063;28;20202;-73
2023/10/22 15:11:54;;;;;;;1.13;0.80;;;;;15.20;100330.00;;;;10427813;28;20286;-73
2023/10/22 15:16:56;;;;;;;4.80;1.25;;;;;15.20;100335.00;;;;10419228;28;20284;-73
2023/10/22 15:21:58;;;;;;;4.70;1.23;;;;;15.40;100345.00;;;;10428577;28;20276;-73
2023/10/22 15:27:00;;;;;;;3.47;1.35;;;;;15.50;100350.00;;;;10420255;28;20206;-73
2023/10/22 15:32:03;;;;;;;3.40;2.15;;;;;15.40;100352.00;;;;10412143;28;20210;-74
2023/10/22 15:37:05;;;;;;;3.58;1.20;;;;;15.20;100359.00;;;;10430288;28;20194;-73
2023/10/22 15:42:06;;;;;;;1.20;0.95;;;;;15.10;100357.00;;;;10391300;28;20252;-71
2023/10/22 15:47:08;;;;;;;1.83;1.25;;;;;15.00;100363.00;;;;10417851;28;20222;-71
2023/10/22 15:52:10;;;;;;;3.67;1.00;;;;;14.90;100380.00;;;;10405547;28;20217;-71
2023/10/22 15:57:12;;;;;;;0.93;0.70;;;;;14.70;100394.00;;;;10419057;28;20210;-72
2023/10/22 16:02:14;;;;;;;1.38;0.70;;;;;14.40;100392.00;;;;10414220;28;20202;-72
2023/10/22 16:07:18;;;;;;;1.30;1.02;;;;;14.10;100395.00;;;;10383489;28;20237;-71
2023/10/22 16:12:20;;;;;;;1.25;1.00;;;;;14.00;100403.00;;;;10381436;28;20206;-70
2023/10/22 16:17:23;;;;;;;2.72;1.42;;;;;14.00;100402.00;;;;10420251;28;20587;-70
2023/10/22 16:22:25;;;;;;;0.90;0.90;;;;;13.60;100412.00;;;;10415697;28;20939;-70
2023/10/22 16:27:45;;;;;;;3.42;1.63;;;;;13.20;100426.00;;;;10586086;27;21093;-69
2023/10/22 16:32:52;;;;;;;1.52;1.10;;;;;12.90;100419.00;;;;10584576;27;21011;-71
2023/10/22 16:37:54;;;;;;;2.28;1.20;;;;;12.70;100429.00;;;;10583455;28;20836;-70
2023/10/22 16:42:56;;;;;;;2.65;1.38;;;;;12.50;100429.00;;;;10581123;28;20303;-69
2023/10/22 16:47:57;;;;;;;2.25;1.60;;;;;12.30;100429.00;;;;10588374;28;20290;-69
2023/10/22 16:52:59;;;;;;;1.73;1.60;;;;;12.20;100432.00;;;;10579492;27;20192;-72
2023/10/22 16:58:03;;;;;;;2.93;2.00;;;;;12.00;100440.00;;;;10580993;27;20196;-71
2023/10/22 17:03:05;;;;;;;2.00;1.27;;;;;11.90;100449.00;;;;10601587;27;20230;-72
2023/10/22 17:08:07;;;;;;;2.77;1.40;;;;;11.80;100455.00;;;;10577547;28;20284;-72
2023/10/22 17:13:08;;;;;;;5.13;1.83;;;;;11.60;100457.00;;;;10583128;27;20283;-72
2023/10/22 17:18:14;;;;;;;2.33;1.93;;;;;11.50;100471.00;;;;10579366;28;20188;-72
2023/10/22 17:23:16;;;;;;;4.13;2.00;;;;;11.50;100468.00;;;;10589201;27;20247;-71
2023/10/22 17:28:19;;;;;;;3.73;2.13;;;;;11.50;100476.00;;;;10601842;27;20187;-71
2023/10/22 17:33:21;;;;;;;3.20;1.93;;;;;11.60;100487.00;;;;10616723;27;20695;-71
2023/10/22 17:38:23;;;;;;;4.50;2.30;;;;;11.70;100497.00;;;;10589941;27;20383;-71
2023/10/22 17:43:26;;;;;;;5.23;3.00;;;;;11.90;100511.00;;;;10585132;27;20215;-72
2023/10/22 17:48:29;;;;;;;5.53;3.10;;;;;11.80;100501.00;;;;10582548;27;20697;-73
2023/10/22 17:53:31;;;;;;;3.67;2.67;;;;;11.80;100522.00;;;;10579048;27;20227;-72
2023/10/22 17:58:33;;;;;;;4.03;2.23;;;;;11.80;100517.00;;;;10592702;27;20190;-73
2023/10/22 18:03:38;;;;;;;7.20;2.67;;;;;11.80;100522.00;;;;10560098;27;20352;-71
2023/10/22 18:08:40;;;;;;;4.97;2.97;;;;;11.80;100525.00;;;;10563610;27;20661;-71
2023/10/22 18:13:43;;;;;;;4.03;2.60;;;;;11.90;100535.00;;;;10591672;27;20196;-71
2023/10/22 18:18:45;;;;;;;7.33;3.20;;;;;11.90;100537.00;;;;10568899;27;20808;-71
2023/10/22 18:23:47;;;;;;;5.97;3.67;;;;;11.80;100544.00;;;;10585594;27;20216;-71
2023/10/22 18:28:50;;;;;;;6.43;3.60;;;;;11.70;100553.00;;;;10579047;27;20665;-71
2023/10/22 18:33:51;;;;;;;8.80;3.77;;;;;11.50;100544.00;;;;10583756;27;20283;-71
2023/10/22 18:38:53;;;;;;;7.67;4.17;;;;;11.40;100557.00;;;;10583919;27;20195;-71
2023/10/22 18:43:55;;;;;;;9.57;4.17;;;;;11.40;100555.00;;;;10567154;27;20298;-71
2023/10/22 18:48:59;;;;;;;10.73;5.20;;;;;11.40;100578.00;;;;10584472;27;20275;-71
2023/10/22 18:54:01;;;;;;;8.70;4.90;;;;;11.50;100570.00;;;;10598415;27;20188;-70
2023/10/22 18:59:03;;;;;;;9.10;4.00;;;;;11.60;100583.00;;;;10595753;27;20188;-71
2023/10/22 19:04:05;;;;;;;11.00;3.90;;;;;11.70;100594.00;;;;10585401;27;21003;-70
2023/10/22 19:09:07;;;;;;;8.63;4.10;;;;;11.70;100590.00;;;;10577584;27;20820;-71
2023/10/22 19:14:09;;;;;;;6.43;4.33;;;;;11.70;100597.00;;;;10571483;27;20188;-71
2023/10/22 19:19:11;;;;;;;6.40;4.10;;;;;11.70;100596.00;;;;10558441;27;20185;-71
2023/10/22 19:24:13;;;;;;;10.37;4.50;;;;;11.70;100595.00;;;;10561497;27;20227;-70
2023/10/22 19:29:15;;;;;;;9.13;4.37;;;;;11.70;100606.00;;;;10559741;27;20184;-70
2023/10/22 19:34:17;;;;;;;9.50;4.40;;;;;11.70;100601.00;;;;10549765;27;20271;-71
2023/10/22 19:39:19;;;;;;;8.60;4.17;;;;;11.70;100609.00;;;;10582372;27;20183;-70
2023/10/22 19:44:21;;;;;;;10.30;4.33;;;;;11.70;100611.00;;;;10545186;27;20268;-70
2023/10/22 19:49:23;;;;;;;8.73;4.80;;;;;11.70;100613.00;;;;10572267;27;20278;-70
2023/10/22 19:54:25;;;;;;;9.23;5.00;;;;;11.70;100627.00;;;;10562659;27;20195;-69
2023/10/22 19:59:27;;;;;;;14.07;5.57;;;;;11.60;100632.00;;;;10558530;27;20250;-70
2023/10/22 20:04:29;;;;;;;10.60;5.53;;;;;11.50;100632.00;;;;10580712;27;20311;-70
2023/10/22 20:09:31;;;;;;;8.33;6.10;;;;;11.30;100638.00;;;;10562829;27;20196;-70
2023/10/22 20:14:34;;;;;;;13.60;6.30;;;;;11.20;100634.00;;;;10581774;27;20203;-70
2023/10/22 20:19:36;;;;;;;12.93;6.33;;;;;11.10;100642.00;;;;10573954;27;20283;-70
2023/10/22 20:24:38;;;;;;;13.00;7.53;;;;;11.00;100637.00;;;;10576711;27;20223;-71
2023/10/22 20:29:40;;;;;;;13.83;6.60;;;;;10.90;100634.00;;;;10576482;27;20203;-70
2023/10/22 20:34:42;;;;;;;14.67;6.83;;;;;10.80;100630.00;;;;10573402;27;20237;-70
2023/10/22 20:39:44;;;;;;;11.50;6.70;;;;;10.80;100633.00;;;;10532996;28;20275;-71
2023/10/22 20:44:49;;;;;;;11.70;6.77;;;;;10.70;100639.00;;;;10565266;28;20200;-70
2023/10/22 20:49:53;;;;;;;14.77;7.53;;;;;10.70;100646.00;;;;10583380;28;20233;-70
2023/10/22 20:54:55;;;;;;;22.57;7.63;;;;;10.70;100636.00;;;;10581031;27;20196;-71
2023/10/22 20:59:58;;;;;;;13.13;6.93;;;;;10.60;100635.00;;;;10563675;28;20766;-70
2023/10/22 21:05:00;;;;;;;12.00;5.60;;;;;10.40;100649.00;;;;10560368;28;20303;-71
2023/10/22 21:10:04;;;;;;;12.40;5.50;;;;;10.30;100642.00;;;;10557559;27;20199;-71
2023/10/22 21:15:06;;;;;;;11.00;6.27;;;;;10.20;100649.00;;;;10573918;27;20213;-70
2023/10/22 21:20:11;;;;;;;14.80;5.90;;;;;10.10;100643.00;;;;10588866;27;20215;-70
2023/10/22 21:25:13;;;;;;;11.40;5.97;;;;;10.10;100655.00;;;;10585944;27;20310;-71
2023/10/22 21:30:15;;;;;;;11.10;5.83;;;;;10.00;100656.00;;;;10568097;27;20245;-71
2023/10/22 21:35:17;;;;;;;11.33;6.17;;;;;9.90;100657.00;;;;10573200;27;20195;-69
2023/10/22 21:40:19;;;;;;;15.20;6.07;;;;;9.90;100653.00;;;;10583335;27;20270;-69
2023/10/22 21:45:21;;;;;;;9.07;5.50;;;;;9.80;100651.00;;;;10570658;27;20208;-69
2023/10/22 21:50:23;;;;;;;8.83;5.63;;;;;9.80;100652.00;;;;10581295;27;20194;-69
2023/10/22 21:55:25;;;;;;;13.03;5.97;;;;;9.70;100655.00;;;;10555286;27;20278;-69
2023/10/22 22:00:28;;;;;;;7.83;5.63;;;;;9.60;100655.00;;;;10583216;27;20195;-70
2023/10/22 22:05:29;;;;;;;10.20;5.70;;;;;9.50;100648.00;;;;10569166;27;20727;-72
2023/10/22 22:10:31;;;;;;;9.43;5.53;;;;;9.50;100660.00;;;;10562357;27;20242;-69
2023/10/22 22:15:34;;;;;;;11.03;6.73;;;;;9.40;100661.00;;;;10588996;27;20203;-71
2023/10/22 22:20:36;;;;;;;15.87;6.30;;;;;9.40;100664.00;;;;10557549;27;20845;-69
2023/10/22 22:25:38;;;;;;;14.23;6.43;;;;;9.40;100665.00;;;;10556808;27;20214;-69
2023/10/22 22:30:46;;;;;;;11.93;5.87;;;;;9.30;100662.00;;;;10581419;27;20260;-70
2023/10/22 22:35:48;;;;;;;10.97;5.80;;;;;9.20;100668.00;;;;10581119;27;20192;-69
2023/10/22 22:40:50;;;;;;;15.80;5.47;;;;;9.20;100665.00;;;;10581787;27;20220;-69
2023/10/22 22:45:52;;;;;;;13.90;5.80;;;;;9.10;100669.00;;;;10571028;27;20262;-69
2023/10/22 22:50:54;;;;;;;15.27;5.63;;;;;9.10;100672.00;;;;10562897;27;20824;-69
2023/10/22 22:55:56;;;;;;;13.47;5.30;;;;;9.00;100667.00;;;;10569945;27;20711;-68
2023/10/22 23:00:58;;;;;;;8.00;5.50;;;;;8.90;100673.00;;;;10571096;27;20218;-72
2023/10/22 23:06:00;;;;;;;11.30;5.27;;;;;8.80;100677.00;;;;10582037;27;20577;-70
2023/10/22 23:11:02;;;;;;;10.63;5.20;;;;;8.70;100674.00;;;;10585941;27;20254;-69
2023/10/22 23:16:04;;;;;;;8.60;4.60;;;;;8.60;100670.00;;;;10586001;27;20293;-72
2023/10/22 23:21:06;;;;;;;11.97;5.50;;;;;8.60;100664.00;;;;10563512;27;20196;-71
2023/10/22 23:26:08;;;;;;;13.90;5.60;;;;;8.60;100679.00;;;;10583455;27;20204;-69
2023/10/22 23:31:10;;;;;;;10.77;4.47;;;;;8.50;100672.00;;;;10590064;27;20282;-69
2023/10/22 23:36:12;;;;;;;12.93;5.43;;;;;8.50;100670.00;;;;10579141;27;20188;-69
2023/10/22 23:41:14;;;;;;;16.13;5.80;;;;;8.60;100677.00;;;;10578660;27;20179;-70
2023/10/22 23:46:18;;;;;;;9.97;5.67;;;;;8.50;100690.00;;;;10573687;27;20298;-69
2023/10/22 23:51:20;;;;;;;9.03;4.90;;;;;8.50;100703.00;;;;10596847;27;20884;-72
2023/10/22 23:56:22;;;;;;;11.07;5.00;;;;;8.50;100700.00;;;;10599777;27;20195;-71
